Time;durP1;ratioP1;P1;durP2;ratioP2;P2;SDS_P1;SDS_P2;PMS_P1;PMS_P2;Temp;Humidity;BMP_temperature;BMP_pressure;BME280_temperature;BME280_humidity;BME280_pressure;Samples;Min_cycle;Max_cycle;Signal;HPM_P1;HPM_P2
2022/11/13 00:00:34;;;;;;;;;;;;;;;15.96;73.86;102462.25;1260845;23;689;-71
2022/11/13 00:01:25;;;;;;;;;;;;;;;15.94;73.70;102465.03;1259917;23;1056;-71
2022/11/13 00:02:15;;;;;;;;;;;;;;;15.92;74.15;102456.22;1267274;23;652;-71
2022/11/13 00:03:06;;;;;;;;;;;;;;;15.93;73.94;102459.78;1265589;23;610;-71
2022/11/13 00:03:56;;;;;;;;;;;;;;;15.95;73.67;102455.16;1267221;23;669;-71
2022/11/13 00:04:46;;;;;;;;;;;;;;;15.92;74.04;102460.75;1265547;23;610;-71
2022/11/13 00:05:37;;;;;;;;;;;;;;;15.94;73.54;102456.13;1265851;23;650;-71
2022/11/13 00:06:27;;;;;;;;;;;;;;;15.92;73.56;102447.28;1260732;23;673;-70
2022/11/13 00:07:18;;;;;;;;;;;;;;;15.93;73.60;102454.41;1261718;23;652;-71
2022/11/13 00:08:08;;;;;;;;;;;;;;;15.91;73.57;102451.81;1266162;23;699;-71
2022/11/13 00:08:59;;;;;;;;;;;;;;;15.93;73.80;102446.34;1265586;23;625;-71
2022/11/13 00:09:49;;;;;;;;;;;;;;;15.94;74.57;102440.00;1265865;23;641;-71
2022/11/13 00:10:39;;;;;;;;;;;;;;;15.92;72.98;102442.78;1265300;23;646;-71
2022/11/13 00:11:30;;;;;;;;;;;;;;;15.91;74.17;102432.13;1260809;23;706;-71
2022/11/13 00:12:20;;;;;;;;;;;;;;;15.93;73.92;102440.97;1261747;23;617;-71
2022/11/13 00:13:11;;;;;;;;;;;;;;;15.90;73.26;102438.47;1267269;23;645;-71
2022/11/13 00:14:01;;;;;;;;;;;;;;;15.88;73.63;102441.25;1266575;23;611;-70
2022/11/13 00:14:52;;;;;;;;;;;;;;;15.88;73.78;102440.38;1267481;23;641;-71
2022/11/13 00:15:42;;;;;;;;;;;;;;;15.88;73.64;102438.56;1265648;23;705;-71
2022/11/13 00:16:32;;;;;;;;;;;;;;;15.88;73.35;102438.56;1265820;23;661;-71
2022/11/13 00:17:23;;;;;;;;;;;;;;;15.88;73.42;102432.31;1266179;23;666;-71
2022/11/13 00:18:13;;;;;;;;;;;;;;;15.88;73.63;102430.47;1265758;23;677;-71
2022/11/13 00:19:04;;;;;;;;;;;;;;;15.90;73.93;102430.38;1265800;23;614;-71
2022/11/13 00:19:54;;;;;;;;;;;;;;;15.90;73.48;102433.06;1265803;23;618;-71
2022/11/13 00:20:44;;;;;;;;;;;;;;;15.90;73.53;102427.69;1267445;23;675;-71
2022/11/13 00:21:35;;;;;;;;;;;;;;;15.90;73.55;102433.06;1266080;23;661;-71
2022/11/13 00:22:25;;;;;;;;;;;;;;;15.92;73.27;102423.09;1265804;23;619;-71
2022/11/13 00:23:16;;;;;;;;;;;;;;;15.92;73.71;102423.09;1265923;23;692;-71
2022/11/13 00:24:06;;;;;;;;;;;;;;;15.90;73.44;102420.50;1265710;23;625;-71
2022/11/13 00:24:57;;;;;;;;;;;;;;;15.88;73.29;102425.09;1265861;23;634;-71
2022/11/13 00:25:47;;;;;;;;;;;;;;;15.88;73.24;102421.56;1267553;23;680;-70
2022/11/13 00:26:38;;;;;;;;;;;;;;;15.89;73.55;102417.91;1265875;23;652;-70
2022/11/13 00:27:29;;;;;;;;;;;;;;;15.87;73.87;102414.44;1265052;23;650;-70
2022/11/13 00:28:19;;;;;;;;;;;;;;;15.87;73.29;102411.75;1267602;23;613;-70
2022/11/13 00:29:09;;;;;;;;;;;;;;;15.89;73.71;102415.22;1265728;23;673;-71
2022/11/13 00:30:00;;;;;;;;;;;;;;;15.89;73.51;102415.22;1266065;23;684;-70
2022/11/13 00:30:50;;;;;;;;;;;;;;;15.89;73.27;102412.53;1265867;23;618;-71
2022/11/13 00:31:41;;;;;;;;;;;;;;;15.86;73.28;102418.97;1265964;23;630;-71
2022/11/13 00:32:31;;;;;;;;;;;;;;;15.87;73.75;102411.75;1261184;23;767;-71
2022/11/13 00:33:22;;;;;;;;;;;;;;;15.85;73.11;102416.34;1261905;23;621;-71
2022/11/13 00:34:12;;;;;;;;;;;;;;;15.86;73.21;102412.72;1267627;23;665;-71
2022/11/13 00:35:02;;;;;;;;;;;;;;;15.87;73.48;102412.63;1265835;23;777;-71
2022/11/13 00:35:53;;;;;;;;;;;;;;;15.86;73.32;102410.88;1265982;23;682;-71
2022/11/13 00:36:43;;;;;;;;;;;;;;;15.85;73.36;102408.28;1265836;23;598;-71
2022/11/13 00:37:34;;;;;;;;;;;;;;;15.85;73.37;102410.97;1266013;23;677;-71
2022/11/13 00:38:24;;;;;;;;;;;;;;;15.84;73.35;102406.56;1265760;23;645;-71
2022/11/13 00:39:15;;;;;;;;;;;;;;;15.85;73.39;102406.47;1265892;23;614;-71
2022/11/13 00:40:05;;;;;;;;;;;;;;;15.85;73.41;102405.59;1265471;23;638;-71
2022/11/13 00:40:55;;;;;;;;;;;;;;;15.83;73.48;102407.53;1267487;23;630;-71
2022/11/13 00:41:46;;;;;;;;;;;;;;;15.84;73.68;102403.88;1265864;23;681;-71
2022/11/13 00:42:36;;;;;;;;;;;;;;;15.85;73.45;102409.16;1267675;23;669;-71
2022/11/13 00:43:27;;;;;;;;;;;;;;;15.86;73.15;102402.81;1265858;23;641;-70
2022/11/13 00:44:17;;;;;;;;;;;;;;;15.85;73.48;102398.41;1265748;23;724;-70
2022/11/13 00:45:08;;;;;;;;;;;;;;;15.86;73.18;102405.50;1265734;23;613;-71
2022/11/13 00:45:58;;;;;;;;;;;;;;;15.84;73.52;102398.50;1260994;23;692;-70
2022/11/13 00:46:48;;;;;;;;;;;;;;;15.85;73.57;102402.91;1262862;23;657;-70
2022/11/13 00:47:39;;;;;;;;;;;;;;;15.83;73.28;102394.94;1267715;23;640;-70
2022/11/13 00:48:29;;;;;;;;;;;;;;;15.83;72.97;102399.47;1265637;23;736;-70
2022/11/13 00:49:20;;;;;;;;;;;;;;;15.82;73.25;102395.03;1261079;23;673;-70
2022/11/13 00:50:10;;;;;;;;;;;;;;;15.82;73.31;102393.22;1261899;23;633;-70
2022/11/13 00:51:00;;;;;;;;;;;;;;;15.82;73.31;102387.84;1267443;23;625;-70
2022/11/13 00:51:51;;;;;;;;;;;;;;;15.84;73.01;102393.13;1266019;23;622;-70
2022/11/13 00:52:41;;;;;;;;;;;;;;;15.84;73.25;102385.06;1265614;23;630;-70
2022/11/13 00:53:32;;;;;;;;;;;;;;;15.85;73.38;102386.78;1267587;23;649;-70
2022/11/13 00:54:22;;;;;;;;;;;;;;;15.84;73.22;102385.06;1266796;23;688;-70
2022/11/13 00:55:13;;;;;;;;;;;;;;;15.82;73.32;102387.84;1267567;23;668;-70
2022/11/13 00:56:03;;;;;;;;;;;;;;;15.82;73.39;102386.97;1265954;23;677;-71
2022/11/13 00:56:53;;;;;;;;;;;;;;;15.81;73.35;102386.09;1265733;23;630;-71
2022/11/13 00:57:44;;;;;;;;;;;;;;;15.80;73.43;102387.06;1265881;23;669;-71
2022/11/13 00:58:34;;;;;;;;;;;;;;;15.82;73.52;102387.84;1265675;23;728;-70
2022/11/13 00:59:25;;;;;;;;;;;;;;;15.80;73.33;102383.50;1265780;23;653;-71
2022/11/13 01:00:15;;;;;;;;;;;;;;;15.79;73.43;102382.66;1265952;23;1896;-71
2022/11/13 01:01:05;;;;;;;;;;;;;;;15.81;73.60;102386.09;1265614;23;622;-71
2022/11/13 01:01:56;;;;;;;;;;;;;;;15.80;73.50;102379.00;1265967;23;673;-71
2022/11/13 01:02:46;;;;;;;;;;;;;;;15.82;73.40;102381.59;1265629;23;650;-71
2022/11/13 01:03:37;;;;;;;;;;;;;;;15.82;73.42;102390.53;1265907;23;685;-71
2022/11/13 01:04:27;;;;;;;;;;;;;;;15.81;73.32;102382.56;1265639;23;649;-71
2022/11/13 01:05:18;;;;;;;;;;;;;;;15.80;73.62;102379.00;1265889;23;688;-71
2022/11/13 01:06:08;;;;;;;;;;;;;;;15.82;73.39;102386.97;1265562;23;728;-71
2022/11/13 01:06:59;;;;;;;;;;;;;;;15.82;73.39;102376.22;1265736;23;606;-71
2022/11/13 01:07:49;;;;;;;;;;;;;;;15.79;73.44;102371.03;1265935;23;681;-71
2022/11/13 01:08:39;;;;;;;;;;;;;;;15.78;73.44;102374.69;1267392;23;586;-71
2022/11/13 01:09:30;;;;;;;;;;;;;;;15.76;73.31;102369.44;1265824;23;726;-71
2022/11/13 01:10:20;;;;;;;;;;;;;;;15.76;73.03;102364.06;1265590;23;657;-71
2022/11/13 01:11:11;;;;;;;;;;;;;;;15.76;73.46;102366.75;1265597;23;614;-71
2022/11/13 01:12:01;;;;;;;;;;;;;;;15.78;73.60;102364.78;1267435;23;665;-71
2022/11/13 01:12:51;;;;;;;;;;;;;;;15.78;73.45;102363.94;1267310;23;618;-71
2022/11/13 01:13:42;;;;;;;;;;;;;;;15.77;73.45;102356.81;1265861;23;626;-71
2022/11/13 01:14:32;;;;;;;;;;;;;;;15.78;73.27;102363.94;1265708;23;606;-71
2022/11/13 01:15:23;;;;;;;;;;;;;;;15.77;73.50;102365.75;1265774;23;653;-71
2022/11/13 01:16:13;;;;;;;;;;;;;;;15.78;73.54;102354.03;1265591;23;661;-71
2022/11/13 01:17:04;;;;;;;;;;;;;;;15.79;73.44;102355.75;1265765;23;598;-71
2022/11/13 01:17:54;;;;;;;;;;;;;;;15.78;73.49;102358.56;1266600;23;645;-71
2022/11/13 01:18:45;;;;;;;;;;;;;;;15.77;73.73;102354.13;1265866;23;598;-71
2022/11/13 01:19:36;;;;;;;;;;;;;;;15.76;73.39;102350.63;1264924;23;638;-71
2022/11/13 01:20:26;;;;;;;;;;;;;;;15.77;73.30;102359.50;1265776;23;1938;-71
2022/11/13 01:21:16;;;;;;;;;;;;;;;15.79;73.23;102360.28;1267345;23;610;-71
2022/11/13 01:22:07;;;;;;;;;;;;;;;15.77;73.42;102352.31;1267432;23;598;-71
2022/11/13 01:22:57;;;;;;;;;;;;;;;15.79;73.34;102354.91;1265565;23;670;-71
2022/11/13 01:23:48;;;;;;;;;;;;;;;15.79;73.07;102354.91;1265703;23;637;-71
2022/11/13 01:24:38;;;;;;;;;;;;;;;15.78;73.34;102356.72;1267379;23;660;-71
2022/11/13 01:25:28;;;;;;;;;;;;;;;15.78;73.14;102358.56;1265738;23;617;-71
2022/11/13 01:26:19;;;;;;;;;;;;;;;15.77;73.28;102356.81;1265882;23;680;-71
2022/11/13 01:27:09;;;;;;;;;;;;;;;15.76;73.31;102355.13;1265567;23;618;-71
2022/11/13 01:28:00;;;;;;;;;;;;;;;15.76;72.88;102356.00;1265833;23;570;-71
2022/11/13 01:28:50;;;;;;;;;;;;;;;15.77;73.25;102357.69;1265668;23;692;-71
2022/11/13 01:29:41;;;;;;;;;;;;;;;15.78;72.76;102350.47;1265761;23;696;-71
2022/11/13 01:30:31;;;;;;;;;;;;;;;15.75;73.32;102353.41;1265674;23;614;-71
2022/11/13 01:31:22;;;;;;;;;;;;;;;15.75;73.59;102353.41;1265778;23;684;-71
2022/11/13 01:32:12;;;;;;;;;;;;;;;15.74;73.51;102357.03;1265942;23;658;-71
2022/11/13 01:33:02;;;;;;;;;;;;;;;15.76;73.14;102357.81;1267422;23;673;-71
2022/11/13 01:33:53;;;;;;;;;;;;;;;15.75;73.21;102351.56;1265738;23;626;-71
2022/11/13 01:34:43;;;;;;;;;;;;;;;15.75;73.11;102348.03;1267343;23;653;-71
2022/11/13 01:35:34;;;;;;;;;;;;;;;15.74;73.14;102357.03;1265820;23;664;-71
2022/11/13 01:36:24;;;;;;;;;;;;;;;15.73;72.95;102352.63;1266382;23;626;-71
2022/11/13 01:37:15;;;;;;;;;;;;;;;15.72;73.33;102346.38;1265735;23;599;-71
2022/11/13 01:38:05;;;;;;;;;;;;;;;15.74;72.82;102343.59;1265442;23;661;-70
2022/11/13 01:38:56;;;;;;;;;;;;;;;15.74;73.27;102341.78;1265683;23;862;-71
2022/11/13 01:39:46;;;;;;;;;;;;;;;15.73;72.99;102347.25;1265883;23;662;-70
2022/11/13 01:40:36;;;;;;;;;;;;;;;15.74;72.92;102343.59;1265504;23;1911;-70
2022/11/13 01:41:27;;;;;;;;;;;;;;;15.72;72.74;102343.69;1260982;23;692;-71
2022/11/13 01:42:17;;;;;;;;;;;;;;;15.69;73.36;102343.88;1262621;23;617;-71
2022/11/13 01:43:08;;;;;;;;;;;;;;;15.72;73.31;102342.84;1267408;23;740;-71
2022/11/13 01:43:58;;;;;;;;;;;;;;;15.70;73.29;102340.22;1266367;23;763;-71
2022/11/13 01:44:49;;;;;;;;;;;;;;;15.72;73.22;102332.94;1265666;23;662;-71
2022/11/13 01:45:39;;;;;;;;;;;;;;;15.73;73.08;102341.88;1265566;23;520;-71
2022/11/13 01:46:30;;;;;;;;;;;;;;;15.72;73.54;102343.69;1267271;23;562;-71
2022/11/13 01:47:20;;;;;;;;;;;;;;;15.72;73.20;102342.84;1265927;23;658;-71
2022/11/13 01:48:10;;;;;;;;;;;;;;;15.71;73.12;102343.78;1267495;23;657;-71
2022/11/13 01:49:01;;;;;;;;;;;;;;;15.72;73.25;102342.84;1265838;23;705;-71
2022/11/13 01:49:51;;;;;;;;;;;;;;;15.72;73.31;102342.84;1265593;23;658;-71
2022/11/13 01:50:42;;;;;;;;;;;;;;;15.70;73.46;102345.59;1265791;23;685;-71
2022/11/13 01:51:33;;;;;;;;;;;;;;;15.69;73.23;102338.50;1265450;23;591;-71
2022/11/13 01:52:23;;;;;;;;;;;;;;;15.70;73.39;102340.22;1264563;23;650;-71
2022/11/13 01:53:13;;;;;;;;;;;;;;;15.69;73.29;102340.31;1265548;23;653;-71
2022/11/13 01:54:04;;;;;;;;;;;;;;;15.69;73.18;102337.63;1267378;23;629;-71
2022/11/13 01:54:54;;;;;;;;;;;;;;;15.68;73.19;102338.59;1265365;23;669;-71
2022/11/13 01:55:45;;;;;;;;;;;;;;;15.70;73.28;102342.91;1265599;23;618;-71
2022/11/13 01:56:35;;;;;;;;;;;;;;;15.68;73.24;102330.53;1265930;23;629;-71
2022/11/13 01:57:26;;;;;;;;;;;;;;;15.68;73.18;102336.78;1265572;23;634;-71
2022/11/13 01:58:16;;;;;;;;;;;;;;;15.68;73.25;102336.78;1265839;23;658;-71
2022/11/13 01:59:06;;;;;;;;;;;;;;;15.70;73.16;102336.69;1265479;23;658;-71
2022/11/13 01:59:57;;;;;;;;;;;;;;;15.69;73.51;102335.81;1265685;23;744;-71
2022/11/13 02:00:47;;;;;;;;;;;;;;;15.69;73.00;102322.38;1267311;23;662;-71
2022/11/13 02:01:38;;;;;;;;;;;;;;;15.71;72.94;102331.22;1265329;23;1789;-71
2022/11/13 02:02:28;;;;;;;;;;;;;;;15.72;72.84;102326.69;1265962;23;614;-71
2022/11/13 02:03:19;;;;;;;;;;;;;;;15.71;73.17;102320.47;1265630;23;654;-71
2022/11/13 02:04:09;;;;;;;;;;;;;;;15.71;73.10;102324.97;1265850;23;666;-71
2022/11/13 02:04:59;;;;;;;;;;;;;;;15.71;73.17;102324.97;1265529;23;646;-71
2022/11/13 02:05:50;;;;;;;;;;;;;;;15.70;73.30;102323.25;1267365;23;661;-70
2022/11/13 02:06:40;;;;;;;;;;;;;;;15.71;72.83;102320.47;1260837;23;554;-70
2022/11/13 02:07:31;;;;;;;;;;;;;;;15.70;73.07;102321.41;1261638;23;652;-72
2022/11/13 02:08:22;;;;;;;;;;;;;;;15.72;73.19;102315.94;1268127;23;637;-71
2022/11/13 02:09:12;;;;;;;;;;;;;;;15.70;73.13;102320.56;1265083;23;693;-71
2022/11/13 02:10:03;;;;;;;;;;;;;;;15.70;73.22;102312.50;1265627;23;646;-71
2022/11/13 02:10:53;;;;;;;;;;;;;;;15.70;72.98;102320.56;1267333;23;681;-71
2022/11/13 02:11:43;;;;;;;;;;;;;;;15.69;72.79;102310.75;1265496;23;658;-71
2022/11/13 02:12:34;;;;;;;;;;;;;;;15.68;72.81;102311.72;1265870;23;717;-71
2022/11/13 02:13:24;;;;;;;;;;;;;;;15.69;72.83;102310.75;1265548;23;670;-71
2022/11/13 02:14:15;;;;;;;;;;;;;;;15.68;72.91;102311.72;1265682;23;611;-71
2022/11/13 02:15:05;;;;;;;;;;;;;;;15.66;73.19;102309.13;1265857;23;712;-71
2022/11/13 02:15:56;;;;;;;;;;;;;;;15.66;72.82;102314.50;1267123;23;649;-71
2022/11/13 02:16:46;;;;;;;;;;;;;;;15.66;73.03;102313.63;1265849;23;688;-71
2022/11/13 02:17:36;;;;;;;;;;;;;;;15.69;73.04;102310.75;1267304;23;640;-71
2022/11/13 02:18:27;;;;;;;;;;;;;;;15.65;73.25;102309.22;1265711;23;648;-71
2022/11/13 02:19:17;;;;;;;;;;;;;;;15.66;73.11;102308.25;1260791;23;641;-71
2022/11/13 02:20:08;;;;;;;;;;;;;;;15.65;73.15;102310.09;1260162;23;641;-70
2022/11/13 02:20:58;;;;;;;;;;;;;;;15.66;72.88;102305.56;1268107;23;597;-71
2022/11/13 02:21:49;;;;;;;;;;;;;;;15.68;72.73;102307.22;1267250;23;653;-70
2022/11/13 02:22:39;;;;;;;;;;;;;;;15.68;73.41;102303.66;1267285;23;680;-71
2022/11/13 02:23:29;;;;;;;;;;;;;;;15.66;73.00;102302.88;1267309;23;618;-71
2022/11/13 02:24:20;;;;;;;;;;;;;;;15.68;73.12;102301.84;1265582;23;673;-71
2022/11/13 02:25:10;;;;;;;;;;;;;;;15.68;73.02;102300.97;1267286;23;609;-71
2022/11/13 02:26:01;;;;;;;;;;;;;;;15.68;73.34;102300.97;1265439;23;642;-71
2022/11/13 02:26:51;;;;;;;;;;;;;;;15.66;73.07;102301.06;1265821;23;642;-71
2022/11/13 02:27:41;;;;;;;;;;;;;;;15.63;73.22;102299.44;1265490;23;657;-71
2022/11/13 02:28:32;;;;;;;;;;;;;;;15.66;73.02;102300.19;1265793;23;653;-70
2022/11/13 02:29:22;;;;;;;;;;;;;;;15.68;73.01;102295.59;1265519;23;658;-70
2022/11/13 02:30:13;;;;;;;;;;;;;;;15.67;72.69;102294.72;1267273;23;604;-70
2022/11/13 02:31:03;;;;;;;;;;;;;;;15.65;73.01;102293.09;1267169;23;649;-70
2022/11/13 02:31:54;;;;;;;;;;;;;;;15.63;73.02;102295.88;1267283;23;629;-71
2022/11/13 02:32:45;;;;;;;;;;;;;;;15.65;73.01;102298.47;1265491;23;622;-71
2022/11/13 02:33:35;;;;;;;;;;;;;;;15.63;73.19;102296.75;1265749;23;697;-71
2022/11/13 02:34:25;;;;;;;;;;;;;;;15.62;73.23;102303.06;1265463;23;700;-71
2022/11/13 02:35:16;;;;;;;;;;;;;;;15.61;73.31;102298.66;1265603;23;603;-71
2022/11/13 02:36:06;;;;;;;;;;;;;;;15.61;73.34;102295.09;1264771;23;670;-71
2022/11/13 02:36:57;;;;;;;;;;;;;;;15.65;72.90;102299.34;1265400;23;607;-71
2022/11/13 02:37:47;;;;;;;;;;;;;;;15.63;72.85;102302.13;1267301;23;649;-71
2022/11/13 02:38:38;;;;;;;;;;;;;;;15.62;73.31;102296.84;1265383;23;677;-71
2022/11/13 02:39:28;;;;;;;;;;;;;;;15.63;73.44;102301.25;1265781;23;653;-71
2022/11/13 02:40:18;;;;;;;;;;;;;;;15.63;73.02;102296.75;1267195;23;1884;-71
2022/11/13 02:41:09;;;;;;;;;;;;;;;15.65;73.21;102293.97;1267318;23;652;-71
2022/11/13 02:41:59;;;;;;;;;;;;;;;15.64;73.11;102292.22;1267191;23;640;-71
2022/11/13 02:42:50;;;;;;;;;;;;;;;15.63;73.16;102294.06;1267178;23;645;-71
2022/11/13 02:43:40;;;;;;;;;;;;;;;15.62;72.89;102294.16;1267371;23;630;-71
2022/11/13 02:44:30;;;;;;;;;;;;;;;15.62;73.14;102295.00;1265501;23;654;-71
2022/11/13 02:45:21;;;;;;;;;;;;;;;15.62;73.06;102296.84;1265568;23;606;-70
2022/11/13 02:46:11;;;;;;;;;;;;;;;15.61;72.93;102304.03;1265823;23;614;-71
2022/11/13 02:47:02;;;;;;;;;;;;;;;15.65;72.75;102298.47;1265499;23;610;-71
2022/11/13 02:47:52;;;;;;;;;;;;;;;15.62;72.93;102300.38;1265747;23;661;-70
2022/11/13 02:48:43;;;;;;;;;;;;;;;15.63;72.22;102301.25;1265374;23;665;-70
2022/11/13 02:49:33;;;;;;;;;;;;;;;15.63;72.92;102295.88;1265668;23;622;-70
2022/11/13 02:50:23;;;;;;;;;;;;;;;15.63;72.78;102299.44;1264896;23;662;-71
2022/11/13 02:51:14;;;;;;;;;;;;;;;15.65;72.71;102293.97;1265604;23;622;-71
2022/11/13 02:52:04;;;;;;;;;;;;;;;15.63;72.93;102291.38;1265808;23;788;-71
2022/11/13 02:52:55;;;;;;;;;;;;;;;15.61;72.85;102290.59;1265481;23;618;-71
2022/11/13 02:53:45;;;;;;;;;;;;;;;15.62;72.67;102288.78;1265759;23;634;-71
2022/11/13 02:54:35;;;;;;;;;;;;;;;15.62;72.74;102284.25;1267210;23;606;-70
2022/11/13 02:55:26;;;;;;;;;;;;;;;15.63;72.57;102288.69;1267159;23;665;-70
2022/11/13 02:56:16;;;;;;;;;;;;;;;15.61;72.96;102284.38;1265334;23;680;-71
2022/11/13 02:57:07;;;;;;;;;;;;;;;15.60;72.86;102280.81;1265487;23;622;-71
2022/11/13 02:57:57;;;;;;;;;;;;;;;15.58;72.76;102287.28;1265722;23;561;-71
2022/11/13 02:58:48;;;;;;;;;;;;;;;15.58;72.84;102281.91;1265489;23;610;-70
2022/11/13 02:59:38;;;;;;;;;;;;;;;15.58;72.89;102282.75;1265721;23;681;-70
2022/11/13 03:00:29;;;;;;;;;;;;;;;15.60;72.51;102280.81;1265301;23;1916;-70
2022/11/13 03:01:19;;;;;;;;;;;;;;;15.58;72.81;102280.06;1260864;23;656;-70
2022/11/13 03:02:09;;;;;;;;;;;;;;;15.58;72.55;102279.22;1262690;23;621;-70
2022/11/13 03:03:00;;;;;;;;;;;;;;;15.57;72.78;102275.66;1267261;23;649;-70
2022/11/13 03:03:50;;;;;;;;;;;;;;;15.55;72.63;102280.25;1265620;23;640;-70
2022/11/13 03:04:41;;;;;;;;;;;;;;;15.55;72.75;102271.31;1267385;23;614;-70
2022/11/13 03:05:31;;;;;;;;;;;;;;;15.57;72.76;102269.41;1265777;23;669;-70
2022/11/13 03:06:22;;;;;;;;;;;;;;;15.58;72.70;102269.31;1267184;23;605;-70
2022/11/13 03:07:12;;;;;;;;;;;;;;;15.56;73.01;102267.69;1265585;23;724;-70
2022/11/13 03:08:02;;;;;;;;;;;;;;;15.55;72.93;102266.81;1265359;23;651;-70
2022/11/13 03:08:53;;;;;;;;;;;;;;;15.58;73.06;102265.78;1265578;23;610;-70
2022/11/13 03:09:43;;;;;;;;;;;;;;;15.56;73.02;102268.56;1267169;23;665;-70
2022/11/13 03:10:34;;;;;;;;;;;;;;;15.56;72.80;102259.63;1267115;23;645;-70
2022/11/13 03:11:24;;;;;;;;;;;;;;;15.58;73.10;102258.56;1267265;23;645;-70
2022/11/13 03:12:14;;;;;;;;;;;;;;;15.57;72.71;102264.91;1265468;23;634;-70
2022/11/13 03:13:05;;;;;;;;;;;;;;;15.58;72.75;102263.09;1267212;23;641;-70
2022/11/13 03:13:55;;;;;;;;;;;;;;;15.57;72.76;102267.59;1260745;23;701;-70
2022/11/13 03:14:46;;;;;;;;;;;;;;;15.58;72.65;102260.41;1261723;23;630;-70
2022/11/13 03:15:36;;;;;;;;;;;;;;;15.56;72.86;102267.69;1267282;23;692;-70
2022/11/13 03:16:27;;;;;;;;;;;;;;;15.54;72.83;102259.69;1265503;23;650;-70
2022/11/13 03:17:17;;;;;;;;;;;;;;;15.53;72.94;102260.66;1265589;23;673;-70
2022/11/13 03:18:07;;;;;;;;;;;;;;;15.54;72.72;102270.44;1265354;23;756;-70
2022/11/13 03:18:58;;;;;;;;;;;;;;;15.54;73.08;102265.06;1265545;23;649;-70
2022/11/13 03:19:48;;;;;;;;;;;;;;;15.53;72.75;102262.47;1265928;23;611;-71
2022/11/13 03:20:39;;;;;;;;;;;;;;;15.53;72.64;102263.34;1265406;23;1936;-70
2022/11/13 03:21:29;;;;;;;;;;;;;;;15.54;73.01;102265.06;1265638;23;625;-70
2022/11/13 03:22:20;;;;;;;;;;;;;;;15.53;72.89;102263.34;1267191;23;594;-70
2022/11/13 03:23:10;;;;;;;;;;;;;;;15.54;72.64;102257.00;1265191;23;661;-70
2022/11/13 03:24:01;;;;;;;;;;;;;;;15.54;72.56;102265.06;1265510;23;582;-70
2022/11/13 03:24:51;;;;;;;;;;;;;;;15.52;72.94;102258.91;1260830;23;664;-70
2022/11/13 03:25:42;;;;;;;;;;;;;;;15.53;72.52;102262.47;1262523;23;613;-70
2022/11/13 03:26:32;;;;;;;;;;;;;;;15.54;72.52;102256.13;1267149;23;661;-70
2022/11/13 03:27:23;;;;;;;;;;;;;;;15.55;72.47;102258.75;1265603;23;742;-70
2022/11/13 03:28:13;;;;;;;;;;;;;;;15.55;72.62;102266.81;1265675;23;658;-70
2022/11/13 03:29:03;;;;;;;;;;;;;;;15.54;72.61;102264.19;1266356;23;661;-70
2022/11/13 03:29:54;;;;;;;;;;;;;;;15.53;72.37;102268.72;1267120;23;654;-70
2022/11/13 03:30:44;;;;;;;;;;;;;;;15.53;72.23;102268.72;1265663;23;618;-71
2022/11/13 03:31:35;;;;;;;;;;;;;;;15.56;72.41;102278.44;1265455;23;638;-70
2022/11/13 03:32:25;;;;;;;;;;;;;;;15.53;72.40;102276.75;1265718;23;669;-70
2022/11/13 03:33:15;;;;;;;;;;;;;;;15.53;72.66;102270.53;1265382;23;654;-70
2022/11/13 03:34:06;;;;;;;;;;;;;;;15.50;72.35;102273.41;1265082;23;642;-70
2022/11/13 03:34:56;;;;;;;;;;;;;;;15.51;72.45;102278.69;1265728;23;670;-70
2022/11/13 03:35:47;;;;;;;;;;;;;;;15.53;72.44;102274.09;1265356;23;606;-70
2022/11/13 03:36:37;;;;;;;;;;;;;;;15.55;72.34;102277.56;1267168;23;660;-70
2022/11/13 03:37:28;;;;;;;;;;;;;;;15.52;72.28;102277.72;1265435;23;760;-70
2022/11/13 03:38:18;;;;;;;;;;;;;;;15.51;71.94;102267.94;1265590;23;813;-70
2022/11/13 03:39:08;;;;;;;;;;;;;;;15.48;72.73;102273.50;1265233;23;614;-70
2022/11/13 03:39:59;;;;;;;;;;;;;;;15.50;72.51;102273.41;1267163;23;633;-70
2022/11/13 03:40:49;;;;;;;;;;;;;;;15.49;72.65;102272.53;1265535;23;642;-70
2022/11/13 03:41:40;;;;;;;;;;;;;;;15.49;72.72;102275.22;1265394;23;661;-70
2022/11/13 03:42:30;;;;;;;;;;;;;;;15.50;72.63;102273.41;1267281;23;660;-70
2022/11/13 03:43:21;;;;;;;;;;;;;;;15.46;72.50;102274.56;1264667;23;661;-70
2022/11/13 03:44:11;;;;;;;;;;;;;;;15.46;72.54;102272.72;1265702;23;661;-71
2022/11/13 03:45:02;;;;;;;;;;;;;;;15.47;72.49;102271.75;1265371;23;630;-70
2022/11/13 03:45:52;;;;;;;;;;;;;;;15.50;72.07;102278.78;1265530;23;693;-71
2022/11/13 03:46:42;;;;;;;;;;;;;;;15.51;72.50;102276.00;1265297;23;756;-71
2022/11/13 03:47:33;;;;;;;;;;;;;;;15.48;72.40;102276.19;1265422;23;619;-71
2022/11/13 03:48:23;;;;;;;;;;;;;;;15.51;72.39;102273.31;1266731;23;661;-70
2022/11/13 03:49:14;;;;;;;;;;;;;;;15.50;72.51;102273.41;1267586;23;621;-70
2022/11/13 03:50:04;;;;;;;;;;;;;;;15.47;72.50;102274.47;1266202;23;697;-70
2022/11/13 03:50:55;;;;;;;;;;;;;;;15.47;72.56;102274.47;1265763;23;626;-71
2022/11/13 03:51:45;;;;;;;;;;;;;;;15.49;72.40;102269.84;1265910;23;634;-71
2022/11/13 03:52:36;;;;;;;;;;;;;;;15.48;72.40;102265.44;1265772;23;653;-70
2022/11/13 03:53:26;;;;;;;;;;;;;;;15.45;72.54;102265.63;1267522;23;618;-70
2022/11/13 03:54:16;;;;;;;;;;;;;;;15.45;72.63;102265.63;1266165;23;714;-71
2022/11/13 03:55:07;;;;;;;;;;;;;;;15.44;72.79;102263.91;1265812;23;608;-71
2022/11/13 03:55:57;;;;;;;;;;;;;;;15.46;72.62;102261.13;1267572;23;664;-71
2022/11/13 03:56:48;;;;;;;;;;;;;;;15.46;72.72;102259.28;1265800;23;646;-71
2022/11/13 03:57:38;;;;;;;;;;;;;;;15.45;72.48;102260.25;1265891;23;649;-71
2022/11/13 03:58:28;;;;;;;;;;;;;;;15.44;72.62;102263.91;1265619;23;653;-71
2022/11/13 03:59:19;;;;;;;;;;;;;;;15.45;72.69;102265.63;1265980;23;608;-71
2022/11/13 04:00:09;;;;;;;;;;;;;;;15.44;72.18;102268.41;1267524;23;711;-71
2022/11/13 04:01:00;;;;;;;;;;;;;;;15.43;72.60;102264.84;1265807;23;665;-71
2022/11/13 04:01:50;;;;;;;;;;;;;;;15.42;72.77;102265.81;1267149;23;1347;-71
2022/11/13 04:02:41;;;;;;;;;;;;;;;15.45;72.44;102260.25;1265720;23;677;-71
2022/11/13 04:03:31;;;;;;;;;;;;;;;15.44;72.64;102263.91;1265900;23;650;-71
2022/11/13 04:04:21;;;;;;;;;;;;;;;15.42;72.56;102260.44;1265707;23;638;-70
2022/11/13 04:05:12;;;;;;;;;;;;;;;15.42;72.38;102265.81;1267530;23;661;-70
2022/11/13 04:06:02;;;;;;;;;;;;;;;15.42;72.38;102265.81;1267213;23;668;-71
2022/11/13 04:06:53;;;;;;;;;;;;;;;15.42;72.50;102263.13;1265291;23;652;-71
2022/11/13 04:07:43;;;;;;;;;;;;;;;15.43;72.63;102266.69;1265604;23;668;-71
2022/11/13 04:08:34;;;;;;;;;;;;;;;15.42;72.50;102260.44;1265669;23;621;-71
2022/11/13 04:09:25;;;;;;;;;;;;;;;15.43;72.42;102262.16;1265776;23;617;-71
2022/11/13 04:10:15;;;;;;;;;;;;;;;15.44;72.60;102255.84;1267059;23;733;-71
2022/11/13 04:11:05;;;;;;;;;;;;;;;15.45;72.68;102256.69;1266058;23;676;-71
2022/11/13 04:11:56;;;;;;;;;;;;;;;15.44;72.82;102261.22;1265815;23;610;-71
2022/11/13 04:12:46;;;;;;;;;;;;;;;15.44;72.59;102253.16;1267398;23;665;-71
2022/11/13 04:13:37;;;;;;;;;;;;;;;15.44;72.82;102253.16;1265822;23;657;-71
2022/11/13 04:14:27;;;;;;;;;;;;;;;15.47;72.27;102252.09;1266019;23;636;-71
2022/11/13 04:15:17;;;;;;;;;;;;;;;15.46;72.50;102250.38;1266618;23;649;-71
2022/11/13 04:16:08;;;;;;;;;;;;;;;15.46;72.43;102250.38;1265792;23;626;-71
2022/11/13 04:16:58;;;;;;;;;;;;;;;15.45;72.40;102249.50;1267444;23;612;-71
2022/11/13 04:17:49;;;;;;;;;;;;;;;15.43;72.55;102248.72;1265791;23;642;-71
2022/11/13 04:18:39;;;;;;;;;;;;;;;15.45;72.47;102240.59;1261007;23;761;-71
2022/11/13 04:19:30;;;;;;;;;;;;;;;15.43;72.62;102247.88;1261948;23;657;-71
2022/11/13 04:20:20;;;;;;;;;;;;;;;15.43;72.72;102250.56;1267445;23;1917;-70
2022/11/13 04:21:10;;;;;;;;;;;;;;;15.42;72.54;102241.63;1265978;23;669;-71
2022/11/13 04:22:01;;;;;;;;;;;;;;;15.43;72.84;102248.72;1265677;23;608;-71
2022/11/13 04:22:51;;;;;;;;;;;;;;;15.41;72.43;102242.59;1265919;23;801;-71
2022/11/13 04:23:42;;;;;;;;;;;;;;;15.40;73.03;102243.59;1265776;23;724;-71
2022/11/13 04:24:32;;;;;;;;;;;;;;;15.40;72.65;102243.59;1265998;23;684;-70
2022/11/13 04:25:23;;;;;;;;;;;;;;;15.38;72.63;102241.94;1266555;23;874;-70
2022/11/13 04:26:13;;;;;;;;;;;;;;;15.40;72.73;102243.59;1265854;23;610;-71